sensor_id;sensor_type;location;lat;lon;timestamp;pressure;altitude;pressure_sealevel;temperature;humidity
58973;BME280;44750;52.040;7.472;2023-10-19T00:04:45;98863.00;;;9.60;100.00
58973;BME280;44750;52.040;7.472;2023-10-19T00:09:46;98882.94;;;9.59;100.00
58973;BME280;44750;52.040;7.472;2023-10-19T00:14:46;98911.16;;;9.56;100.00
58973;BME280;44750;52.040;7.472;2023-10-19T00:19:46;98920.59;;;9.45;100.00
58973;BME280;44750;52.040;7.472;2023-10-19T00:24:46;98959.78;;;9.56;100.00
58973;BME280;44750;52.040;7.472;2023-10-19T00:29:46;98964.44;;;9.47;100.00
58973;BME280;44750;52.040;7.472;2023-10-19T00:34:47;98990.44;;;9.48;100.00
58973;BME280;44750;52.040;7.472;2023-10-19T00:39:47;99000.41;;;9.48;100.00
58973;BME280;44750;52.040;7.472;2023-10-19T00:44:47;99040.50;;;9.66;100.00
58973;BME280;44750;52.040;7.472;2023-10-19T00:49:48;99050.03;;;9.62;100.00
58973;BME280;44750;52.040;7.472;2023-10-19T00:54:50;99060.63;;;9.63;100.00
58973;BME280;44750;52.040;7.472;2023-10-19T00:59:51;99045.03;;;9.44;100.00
58973;BME280;44750;52.040;7.472;2023-10-19T01:04:53;99060.38;;;9.43;100.00
58973;BME280;44750;52.040;7.472;2023-10-19T01:09:55;99095.28;;;9.45;100.00
58973;BME280;44750;52.040;7.472;2023-10-19T01:15:15;99128.19;;;9.48;100.00
58973;BME280;44750;52.040;7.472;2023-10-19T01:20:17;99173.38;;;9.54;100.00
58973;BME280;44750;52.040;7.472;2023-10-19T01:25:18;99209.97;;;9.57;100.00
58973;BME280;44750;52.040;7.472;2023-10-19T01:30:18;99234.22;;;9.65;100.00
58973;BME280;44750;52.040;7.472;2023-10-19T01:35:18;99258.16;;;9.68;100.00
58973;BME280;44750;52.040;7.472;2023-10-19T01:40:18;99303.19;;;9.76;100.00
58973;BME280;44750;52.040;7.472;2023-10-19T01:45:19;99299.47;;;9.77;100.00
58973;BME280;44750;52.040;7.472;2023-10-19T01:50:19;99325.09;;;9.81;100.00
58973;BME280;44750;52.040;7.472;2023-10-19T01:55:19;99347.19;;;9.85;100.00
58973;BME280;44750;52.040;7.472;2023-10-19T02:00:19;99365.56;;;9.90;100.00
58973;BME280;44750;52.040;7.472;2023-10-19T02:05:20;99379.38;;;9.95;100.00
58973;BME280;44750;52.040;7.472;2023-10-19T02:10:20;99399.44;;;10.00;100.00
58973;BME280;44750;52.040;7.472;2023-10-19T02:15:20;99416.97;;;10.04;100.00
58973;BME280;44750;52.040;7.472;2023-10-19T02:20:20;99424.06;;;10.06;100.00
58973;BME280;44750;52.040;7.472;2023-10-19T02:25:20;99449.19;;;10.14;100.00
58973;BME280;44750;52.040;7.472;2023-10-19T02:30:21;99463.72;;;10.13;100.00
58973;BME280;44750;52.040;7.472;2023-10-19T02:35:21;99484.28;;;10.23;100.00
58973;BME280;44750;52.040;7.472;2023-10-19T02:40:21;99499.75;;;10.29;100.00
58973;BME280;44750;52.040;7.472;2023-10-19T02:45:22;99523.75;;;10.32;100.00
58973;BME280;44750;52.040;7.472;2023-10-19T02:50:22;99521.88;;;10.32;100.00
58973;BME280;44750;52.040;7.472;2023-10-19T02:55:22;99561.59;;;10.40;100.00
58973;BME280;44750;52.040;7.472;2023-10-19T03:00:22;99560.88;;;10.46;100.00
58973;BME280;44750;52.040;7.472;2023-10-19T03:05:22;99600.00;;;10.59;100.00
58973;BME280;44750;52.040;7.472;2023-10-19T03:10:23;99608.44;;;10.64;100.00
58973;BME280;44750;52.040;7.472;2023-10-19T03:15:23;99626.19;;;10.66;100.00
58973;BME280;44750;52.040;7.472;2023-10-19T03:20:23;99636.25;;;10.73;100.00
58973;BME280;44750;52.040;7.472;2023-10-19T03:25:23;99666.94;;;10.88;100.00
58973;BME280;44750;52.040;7.472;2023-10-19T03:30:24;99668.09;;;10.94;100.00
58973;BME280;44750;52.040;7.472;2023-10-19T03:35:24;99665.56;;;10.92;100.00
58973;BME280;44750;52.040;7.472;2023-10-19T03:40:24;99680.41;;;10.96;100.00
58973;BME280;44750;52.040;7.472;2023-10-19T03:45:24;99686.31;;;11.00;100.00
58973;BME280;44750;52.040;7.472;2023-10-19T03:50:24;99703.03;;;11.03;100.00
58973;BME280;44750;52.040;7.472;2023-10-19T03:55:25;99719.78;;;11.07;100.00
58973;BME280;44750;52.040;7.472;2023-10-19T04:00:25;99728.19;;;11.12;100.00
58973;BME280;44750;52.040;7.472;2023-10-19T04:05:25;99741.34;;;11.24;100.00
58973;BME280;44750;52.040;7.472;2023-10-19T04:10:25;99736.63;;;11.17;100.00
58973;BME280;44750;52.040;7.472;2023-10-19T04:15:26;99748.59;;;11.23;100.00
58973;BME280;44750;52.040;7.472;2023-10-19T04:20:26;99757.41;;;11.25;100.00
58973;BME280;44750;52.040;7.472;2023-10-19T04:25:27;99759.25;;;11.25;100.00
58973;BME280;44750;52.040;7.472;2023-10-19T04:30:28;99777.31;;;11.32;100.00
58973;BME280;44750;52.040;7.472;2023-10-19T04:35:28;99789.28;;;11.38;100.00
58973;BME280;44750;52.040;7.472;2023-10-19T04:40:28;99796.69;;;11.44;100.00
58973;BME280;44750;52.040;7.472;2023-10-19T04:45:28;99812.25;;;11.50;100.00
58973;BME280;44750;52.040;7.472;2023-10-19T04:50:29;99820.81;;;11.62;100.00
58973;BME280;44750;52.040;7.472;2023-10-19T04:55:30;99831.47;;;11.64;100.00
58973;BME280;44750;52.040;7.472;2023-10-19T05:00:30;99840.53;;;11.71;100.00
58973;BME280;44750;52.040;7.472;2023-10-19T05:05:30;99851.38;;;11.71;100.00
58973;BME280;44750;52.040;7.472;2023-10-19T05:10:30;99850.53;;;11.70;100.00
58973;BME280;44750;52.040;7.472;2023-10-19T05:15:31;99859.81;;;11.76;100.00
58973;BME280;44750;52.040;7.472;2023-10-19T05:20:31;99861.31;;;11.79;100.00
58973;BME280;44750;52.040;7.472;2023-10-19T05:25:31;99857.78;;;11.78;100.00
58973;BME280;44750;52.040;7.472;2023-10-19T05:30:32;99863.66;;;11.82;100.00
58973;BME280;44750;52.040;7.472;2023-10-19T05:35:32;99870.59;;;11.84;100.00
58973;BME280;44750;52.040;7.472;2023-10-19T05:40:33;99887.72;;;11.85;100.00
58973;BME280;44750;52.040;7.472;2023-10-19T05:45:33;99897.00;;;11.91;100.00
58973;BME280;44750;52.040;7.472;2023-10-19T05:50:34;99910.53;;;11.91;100.00
58973;BME280;44750;52.040;7.472;2023-10-19T05:55:34;99902.78;;;11.87;100.00
58973;BME280;44750;52.040;7.472;2023-10-19T06:00:34;99914.28;;;11.90;100.00
58973;BME280;44750;52.040;7.472;2023-10-19T06:05:34;99925.47;;;11.95;100.00
58973;BME280;44750;52.040;7.472;2023-10-19T06:10:35;99943.06;;;11.99;100.00
58973;BME280;44750;52.040;7.472;2023-10-19T06:15:35;99938.47;;;11.99;100.00
58973;BME280;44750;52.040;7.472;2023-10-19T06:20:36;99964.88;;;12.06;100.00
58973;BME280;44750;52.040;7.472;2023-10-19T06:25:37;99967.22;;;12.09;100.00
58973;BME280;44750;52.040;7.472;2023-10-19T06:30:38;100002.78;;;12.37;100.00
58973;BME280;44750;52.040;7.472;2023-10-19T06:35:59;100002.59;;;12.38;100.00
58973;BME280;44750;52.040;7.472;2023-10-19T06:40:59;100011.22;;;12.42;100.00
58973;BME280;44750;52.040;7.472;2023-10-19T06:45:59;100005.78;;;12.42;100.00
58973;BME280;44750;52.040;7.472;2023-10-19T06:51:00;100026.06;;;12.54;100.00
58973;BME280;44750;52.040;7.472;2023-10-19T06:56:00;100030.38;;;12.64;100.00
58973;BME280;44750;52.040;7.472;2023-10-19T07:01:01;100041.66;;;12.76;100.00
58973;BME280;44750;52.040;7.472;2023-10-19T07:06:01;100051.41;;;12.85;100.00
58973;BME280;44750;52.040;7.472;2023-10-19T07:11:01;100039.59;;;12.78;100.00
58973;BME280;44750;52.040;7.472;2023-10-19T07:16:01;100041.47;;;12.77;100.00
58973;BME280;44750;52.040;7.472;2023-10-19T07:21:02;100093.81;;;13.09;100.00
58973;BME280;44750;52.040;7.472;2023-10-19T07:26:04;100106.09;;;13.20;100.00
58973;BME280;44750;52.040;7.472;2023-10-19T07:31:04;100108.72;;;13.28;100.00
58973;BME280;44750;52.040;7.472;2023-10-19T07:36:11;100100.03;;;13.33;100.00
58973;BME280;44750;52.040;7.472;2023-10-19T07:41:12;100109.97;;;13.41;100.00
58973;BME280;44750;52.040;7.472;2023-10-19T07:46:12;100103.50;;;13.42;100.00
58973;BME280;44750;52.040;7.472;2023-10-19T07:51:13;100104.81;;;13.46;100.00
58973;BME280;44750;52.040;7.472;2023-10-19T07:56:13;100105.31;;;13.49;100.00
58973;BME280;44750;52.040;7.472;2023-10-19T08:01:13;100107.28;;;13.56;100.00
58973;BME280;44750;52.040;7.472;2023-10-19T08:06:13;100112.63;;;13.64;100.00
58973;BME280;44750;52.040;7.472;2023-10-19T08:11:13;100123.69;;;13.77;100.00
58973;BME280;44750;52.040;7.472;2023-10-19T08:16:14;100129.69;;;13.87;100.00
58973;BME280;44750;52.040;7.472;2023-10-19T08:21:14;100121.78;;;13.93;100.00
58973;BME280;44750;52.040;7.472;2023-10-19T08:26:14;100117.00;;;13.95;100.00
58973;BME280;44750;52.040;7.472;2023-10-19T08:31:14;100121.41;;;13.96;100.00
58973;BME280;44750;52.040;7.472;2023-10-19T08:36:18;100121.84;;;13.99;100.00
58973;BME280;44750;52.040;7.472;2023-10-19T08:41:18;100124.03;;;14.04;100.00
58973;BME280;44750;52.040;7.472;2023-10-19T08:46:19;100127.28;;;14.14;100.00
58973;BME280;44750;52.040;7.472;2023-10-19T08:51:19;100126.91;;;14.17;100.00
58973;BME280;44750;52.040;7.472;2023-10-19T08:56:19;100124.19;;;14.17;100.00
58973;BME280;44750;52.040;7.472;2023-10-19T09:01:20;100136.38;;;14.21;100.00
58973;BME280;44750;52.040;7.472;2023-10-19T09:06:20;100141.41;;;14.25;100.00
58973;BME280;44750;52.040;7.472;2023-10-19T09:11:20;100150.81;;;14.37;100.00
58973;BME280;44750;52.040;7.472;2023-10-19T09:16:22;100137.19;;;14.37;100.00
58973;BME280;44750;52.040;7.472;2023-10-19T09:21:22;100141.22;;;14.41;100.00
58973;BME280;44750;52.040;7.472;2023-10-19T09:26:23;100184.91;;;14.69;100.00
58973;BME280;44750;52.040;7.472;2023-10-19T09:31:24;100171.34;;;14.76;100.00
58973;BME280;44750;52.040;7.472;2023-10-19T09:36:25;100145.41;;;14.80;100.00
58973;BME280;44750;52.040;7.472;2023-10-19T09:41:25;100164.66;;;15.00;100.00
58973;BME280;44750;52.040;7.472;2023-10-19T09:46:27;100152.38;;;15.11;100.00
58973;BME280;44750;52.040;7.472;2023-10-19T09:51:29;100156.13;;;15.32;100.00
58973;BME280;44750;52.040;7.472;2023-10-19T09:56:36;100197.44;;;15.85;100.00
58973;BME280;44750;52.040;7.472;2023-10-19T10:07:05;100148.84;;;16.02;100.00
58973;BME280;44750;52.040;7.472;2023-10-19T10:12:23;100121.16;;;16.12;100.00
58973;BME280;44750;52.040;7.472;2023-10-19T10:17:24;100127.94;;;16.36;100.00
58973;BME280;44750;52.040;7.472;2023-10-19T10:22:25;100102.34;;;16.51;100.00
58973;BME280;44750;52.040;7.472;2023-10-19T10:27:25;100066.00;;;16.57;100.00
58973;BME280;44750;52.040;7.472;2023-10-19T10:32:48;100032.19;;;16.65;100.00
58973;BME280;44750;52.040;7.472;2023-10-19T10:37:53;100019.13;;;16.80;100.00
58973;BME280;44750;52.040;7.472;2023-10-19T10:43:06;99988.84;;;16.95;100.00
58973;BME280;44750;52.040;7.472;2023-10-19T10:48:18;99897.63;;;16.76;100.00
58973;BME280;44750;52.040;7.472;2023-10-19T10:53:18;99866.13;;;16.67;100.00
58973;BME280;44750;52.040;7.472;2023-10-19T10:58:19;99858.91;;;16.79;100.00
58973;BME280;44750;52.040;7.472;2023-10-19T11:03:19;99850.50;;;16.94;100.00
58973;BME280;44750;52.040;7.472;2023-10-19T11:08:23;99799.41;;;16.88;100.00
58973;BME280;44750;52.040;7.472;2023-10-19T11:13:24;99771.25;;;16.87;100.00
58973;BME280;44750;52.040;7.472;2023-10-19T11:18:34;99781.06;;;17.02;100.00
58973;BME280;44750;52.040;7.472;2023-10-19T11:23:42;99803.78;;;17.41;100.00
58973;BME280;44750;52.040;7.472;2023-10-19T11:28:43;99771.81;;;17.67;100.00
58973;BME280;44750;52.040;7.472;2023-10-19T11:33:45;99746.13;;;17.93;100.00
58973;BME280;44750;52.040;7.472;2023-10-19T11:38:47;99705.25;;;18.17;100.00
58973;BME280;44750;52.040;7.472;2023-10-19T11:43:48;99653.53;;;18.39;100.00
58973;BME280;44750;52.040;7.472;2023-10-19T11:48:49;99561.63;;;18.25;100.00
58973;BME280;44750;52.040;7.472;2023-10-19T11:53:49;99504.13;;;18.25;100.00
58973;BME280;44750;52.040;7.472;2023-10-19T11:58:49;99463.41;;;18.28;100.00
58973;BME280;44750;52.040;7.472;2023-10-19T12:03:49;99441.03;;;18.43;100.00
58973;BME280;44750;52.040;7.472;2023-10-19T12:08:49;99363.63;;;18.36;100.00
58973;BME280;44750;52.040;7.472;2023-10-19T12:13:50;99319.78;;;18.48;100.00
58973;BME280;44750;52.040;7.472;2023-10-19T12:18:50;99255.72;;;18.37;100.00
58973;BME280;44750;52.040;7.472;2023-10-19T12:23:50;99220.44;;;18.41;100.00
58973;BME280;44750;52.040;7.472;2023-10-19T12:28:50;99153.28;;;18.38;100.00
58973;BME280;44750;52.040;7.472;2023-10-19T12:33:50;99118.00;;;18.42;100.00
58973;BME280;44750;52.040;7.472;2023-10-19T12:38:51;99102.84;;;18.51;100.00
58973;BME280;44750;52.040;7.472;2023-10-19T12:43:51;99077.31;;;18.62;100.00
58973;BME280;44750;52.040;7.472;2023-10-19T12:48:52;99066.81;;;19.05;100.00
58973;BME280;44750;52.040;7.472;2023-10-19T12:53:52;99004.00;;;19.03;100.00
58973;BME280;44750;52.040;7.472;2023-10-19T12:58:52;98941.91;;;19.14;100.00
58973;BME280;44750;52.040;7.472;2023-10-19T13:03:52;98857.84;;;19.03;100.00
58973;BME280;44750;52.040;7.472;2023-10-19T13:08:52;98765.41;;;18.59;100.00
58973;BME280;44750;52.040;7.472;2023-10-19T13:13:53;98742.53;;;18.48;100.00
58973;BME280;44750;52.040;7.472;2023-10-19T13:18:53;98725.25;;;18.48;100.00
58973;BME280;44750;52.040;7.472;2023-10-19T13:23:53;98682.81;;;18.28;100.00
58973;BME280;44750;52.040;7.472;2023-10-19T13:28:54;98677.84;;;18.25;100.00
58973;BME280;44750;52.040;7.472;2023-10-19T13:33:54;98667.72;;;18.26;100.00
58973;BME280;44750;52.040;7.472;2023-10-19T13:38:54;98661.94;;;18.22;100.00
58973;BME280;44750;52.040;7.472;2023-10-19T13:43:54;98677.16;;;18.35;100.00
58973;BME280;44750;52.040;7.472;2023-10-19T13:48:55;98651.34;;;18.31;100.00
58973;BME280;44750;52.040;7.472;2023-10-19T13:53:55;98645.31;;;18.29;100.00
58973;BME280;44750;52.040;7.472;2023-10-19T13:58:56;98635.94;;;18.25;100.00
58973;BME280;44750;52.040;7.472;2023-10-19T14:03:56;98619.75;;;18.23;100.00
58973;BME280;44750;52.040;7.472;2023-10-19T14:08:56;98620.59;;;18.24;100.00
58973;BME280;44750;52.040;7.472;2023-10-19T14:13:56;98613.41;;;18.17;100.00
58973;BME280;44750;52.040;7.472;2023-10-19T14:18:57;98618.81;;;18.12;100.00
58973;BME280;44750;52.040;7.472;2023-10-19T14:23:57;98602.75;;;17.99;100.00
58973;BME280;44750;52.040;7.472;2023-10-19T14:28:57;98599.38;;;17.92;100.00
58973;BME280;44750;52.040;7.472;2023-10-19T14:33:57;98605.56;;;17.87;100.00
58973;BME280;44750;52.040;7.472;2023-10-19T14:38:57;98614.22;;;17.79;100.00
58973;BME280;44750;52.040;7.472;2023-10-19T14:43:57;98626.50;;;17.76;100.00
58973;BME280;44750;52.040;7.472;2023-10-19T14:48:58;98684.97;;;18.04;100.00
58973;BME280;44750;52.040;7.472;2023-10-19T14:53:58;98659.16;;;18.00;100.00
58973;BME280;44750;52.040;7.472;2023-10-19T14:58:58;98655.53;;;17.94;100.00
58973;BME280;44750;52.040;7.472;2023-10-19T15:03:58;98654.59;;;17.88;100.00
58973;BME280;44750;52.040;7.472;2023-10-19T15:08:58;98653.69;;;17.83;100.00
58973;BME280;44750;52.040;7.472;2023-10-19T15:13:59;98655.44;;;17.72;100.00
58973;BME280;44750;52.040;7.472;2023-10-19T15:18:59;98683.31;;;17.69;100.00
58973;BME280;44750;52.040;7.472;2023-10-19T15:23:59;98691.19;;;17.65;100.00
58973;BME280;44750;52.040;7.472;2023-10-19T15:28:59;98696.00;;;17.58;100.00
58973;BME280;44750;52.040;7.472;2023-10-19T15:33:59;98698.31;;;17.49;100.00
58973;BME280;44750;52.040;7.472;2023-10-19T15:39:00;98710.22;;;17.43;100.00
58973;BME280;44750;52.040;7.472;2023-10-19T15:44:00;98725.72;;;17.37;100.00
58973;BME280;44750;52.040;7.472;2023-10-19T15:49:00;98753.84;;;17.33;100.00
58973;BME280;44750;52.040;7.472;2023-10-19T15:54:01;98756.94;;;17.25;100.00
58973;BME280;44750;52.040;7.472;2023-10-19T15:59:01;98784.09;;;17.14;100.00
58973;BME280;44750;52.040;7.472;2023-10-19T16:04:01;98804.94;;;17.03;100.00
58973;BME280;44750;52.040;7.472;2023-10-19T16:09:02;98820.97;;;16.88;100.00
58973;BME280;44750;52.040;7.472;2023-10-19T16:14:02;98863.41;;;16.79;100.00
58973;BME280;44750;52.040;7.472;2023-10-19T16:19:02;98886.81;;;16.75;100.00
58973;BME280;44750;52.040;7.472;2023-10-19T16:24:03;98934.09;;;16.75;100.00
58973;BME280;44750;52.040;7.472;2023-10-19T16:29:03;98953.56;;;16.67;100.00
58973;BME280;44750;52.040;7.472;2023-10-19T16:34:04;98971.38;;;16.58;100.00
58973;BME280;44750;52.040;7.472;2023-10-19T16:39:05;98998.78;;;16.51;100.00
58973;BME280;44750;52.040;7.472;2023-10-19T16:44:05;99030.22;;;16.42;100.00
58973;BME280;44750;52.040;7.472;2023-10-19T16:49:05;99067.88;;;16.40;100.00
58973;BME280;44750;52.040;7.472;2023-10-19T16:54:10;99085.19;;;16.33;100.00
58973;BME280;44750;52.040;7.472;2023-10-19T16:59:10;99120.44;;;16.35;100.00
58973;BME280;44750;52.040;7.472;2023-10-19T17:04:10;99151.31;;;16.35;100.00
58973;BME280;44750;52.040;7.472;2023-10-19T17:09:14;99156.63;;;16.30;100.00
58973;BME280;44750;52.040;7.472;2023-10-19T17:14:15;99174.75;;;16.25;100.00
58973;BME280;44750;52.040;7.472;2023-10-19T17:19:15;99198.25;;;16.26;100.00
58973;BME280;44750;52.040;7.472;2023-10-19T17:24:16;99210.69;;;16.21;100.00
58973;BME280;44750;52.040;7.472;2023-10-19T17:29:16;99236.13;;;16.22;100.00
58973;BME280;44750;52.040;7.472;2023-10-19T17:34:16;99245.03;;;16.11;100.00
58973;BME280;44750;52.040;7.472;2023-10-19T17:39:16;99266.31;;;16.02;100.00
58973;BME280;44750;52.040;7.472;2023-10-19T17:44:17;99297.59;;;16.06;100.00
58973;BME280;44750;52.040;7.472;2023-10-19T17:49:17;99303.94;;;16.00;100.00
58973;BME280;44750;52.040;7.472;2023-10-19T17:54:17;99320.13;;;15.95;100.00
58973;BME280;44750;52.040;7.472;2023-10-19T17:59:18;99341.16;;;15.94;100.00
58973;BME280;44750;52.040;7.472;2023-10-19T18:04:18;99352.25;;;15.93;100.00
58973;BME280;44750;52.040;7.472;2023-10-19T18:09:18;99369.72;;;15.92;100.00
58973;BME280;44750;52.040;7.472;2023-10-19T18:14:18;99377.09;;;15.78;100.00
58973;BME280;44750;52.040;7.472;2023-10-19T18:19:18;99401.44;;;15.79;100.00
58973;BME280;44750;52.040;7.472;2023-10-19T18:24:19;99406.09;;;15.72;100.00
58973;BME280;44750;52.040;7.472;2023-10-19T18:29:19;99426.69;;;15.68;100.00
58973;BME280;44750;52.040;7.472;2023-10-19T18:34:20;99456.06;;;15.66;100.00
58973;BME280;44750;52.040;7.472;2023-10-19T18:39:20;99479.16;;;15.63;100.00
58973;BME280;44750;52.040;7.472;2023-10-19T18:44:20;99498.91;;;15.65;100.00
58973;BME280;44750;52.040;7.472;2023-10-19T18:49:20;99522.56;;;15.78;100.00
58973;BME280;44750;52.040;7.472;2023-10-19T18:54:21;99518.81;;;15.66;100.00
58973;BME280;44750;52.040;7.472;2023-10-19T18:59:21;99514.03;;;15.61;100.00
58973;BME280;44750;52.040;7.472;2023-10-19T19:04:21;99500.66;;;15.46;100.00
58973;BME280;44750;52.040;7.472;2023-10-19T19:09:21;99488.72;;;15.34;100.00
58973;BME280;44750;52.040;7.472;2023-10-19T19:14:21;99508.25;;;15.31;100.00
58973;BME280;44750;52.040;7.472;2023-10-19T19:19:22;99524.41;;;15.26;100.00
58973;BME280;44750;52.040;7.472;2023-10-19T19:24:22;99568.00;;;15.26;100.00
58973;BME280;44750;52.040;7.472;2023-10-19T19:29:22;99585.41;;;15.25;100.00
58973;BME280;44750;52.040;7.472;2023-10-19T19:34:22;99568.47;;;15.09;100.00
58973;BME280;44750;52.040;7.472;2023-10-19T19:39:23;99611.03;;;15.10;100.00
58973;BME280;44750;52.040;7.472;2023-10-19T19:44:23;99614.78;;;15.02;100.00
58973;BME280;44750;52.040;7.472;2023-10-19T19:49:23;99637.44;;;15.03;100.00
58973;BME280;44750;52.040;7.472;2023-10-19T19:54:23;99642.25;;;15.01;100.00
58973;BME280;44750;52.040;7.472;2023-10-19T19:59:24;99625.69;;;14.96;100.00
58973;BME280;44750;52.040;7.472;2023-10-19T20:04:24;99636.81;;;14.87;100.00
58973;BME280;44750;52.040;7.472;2023-10-19T20:09:24;99631.94;;;14.76;100.00
58973;BME280;44750;52.040;7.472;2023-10-19T20:14:24;99614.72;;;14.55;100.00
58973;BME280;44750;52.040;7.472;2023-10-19T20:19:24;99617.22;;;14.50;100.00
58973;BME280;44750;52.040;7.472;2023-10-19T20:24:24;99631.41;;;14.39;100.00
58973;BME280;44750;52.040;7.472;2023-10-19T20:29:25;99641.69;;;14.37;100.00
58973;BME280;44750;52.040;7.472;2023-10-19T20:34:25;99652.72;;;14.29;100.00
58973;BME280;44750;52.040;7.472;2023-10-19T20:39:25;99665.94;;;14.32;100.00
58973;BME280;44750;52.040;7.472;2023-10-19T20:44:25;99684.34;;;14.30;100.00
58973;BME280;44750;52.040;7.472;2023-10-19T20:49:25;99672.34;;;14.11;100.00
58973;BME280;44750;52.040;7.472;2023-10-19T20:54:26;99660.19;;;14.07;100.00
58973;BME280;44750;52.040;7.472;2023-10-19T20:59:26;99673.13;;;14.04;100.00
58973;BME280;44750;52.040;7.472;2023-10-19T21:04:26;99654.25;;;13.96;100.00
58973;BME280;44750;52.040;7.472;2023-10-19T21:09:26;99659.91;;;13.95;100.00
58973;BME280;44750;52.040;7.472;2023-10-19T21:14:26;99651.50;;;13.90;100.00
58973;BME280;44750;52.040;7.472;2023-10-19T21:19:27;99633.44;;;13.75;100.00
58973;BME280;44750;52.040;7.472;2023-10-19T21:24:27;99610.81;;;13.68;100.00
58973;BME280;44750;52.040;7.472;2023-10-19T21:29:27;99641.34;;;13.70;100.00
58973;BME280;44750;52.040;7.472;2023-10-19T21:34:27;99621.22;;;13.64;100.00
58973;BME280;44750;52.040;7.472;2023-10-19T21:39:27;99594.16;;;13.49;100.00
58973;BME280;44750;52.040;7.472;2023-10-19T21:44:28;99568.59;;;13.37;100.00
58973;BME280;44750;52.040;7.472;2023-10-19T21:49:28;99584.03;;;13.36;100.00
58973;BME280;44750;52.040;7.472;2023-10-19T21:54:28;99583.59;;;13.33;100.00
58973;BME280;44750;52.040;7.472;2023-10-19T21:59:28;99564.31;;;13.28;100.00
58973;BME280;44750;52.040;7.472;2023-10-19T22:04:28;99579.34;;;13.24;100.00
58973;BME280;44750;52.040;7.472;2023-10-19T22:09:29;99578.84;;;13.13;100.00
58973;BME280;44750;52.040;7.472;2023-10-19T22:14:29;99595.41;;;13.18;100.00
58973;BME280;44750;52.040;7.472;2023-10-19T22:19:29;99593.66;;;13.11;100.00
58973;BME280;44750;52.040;7.472;2023-10-19T22:24:29;99615.66;;;13.16;100.00
58973;BME280;44750;52.040;7.472;2023-10-19T22:29:29;99614.94;;;13.07;100.00
58973;BME280;44750;52.040;7.472;2023-10-19T22:34:30;99631.34;;;13.20;100.00
58973;BME280;44750;52.040;7.472;2023-10-19T22:39:30;99614.53;;;13.03;100.00
58973;BME280;44750;52.040;7.472;2023-10-19T22:44:30;99640.56;;;12.98;100.00
58973;BME280;44750;52.040;7.472;2023-10-19T22:49:30;99661.88;;;12.94;100.00
58973;BME280;44750;52.040;7.472;2023-10-19T22:54:30;99644.97;;;12.77;100.00
58973;BME280;44750;52.040;7.472;2023-10-19T22:59:31;99680.41;;;12.91;100.00
58973;BME280;44750;52.040;7.472;2023-10-19T23:04:31;99676.78;;;12.83;100.00
58973;BME280;44750;52.040;7.472;2023-10-19T23:09:31;99721.16;;;12.91;100.00
58973;BME280;44750;52.040;7.472;2023-10-19T23:14:31;99704.00;;;12.68;100.00
58973;BME280;44750;52.040;7.472;2023-10-19T23:19:32;99765.53;;;12.98;100.00
58973;BME280;44750;52.040;7.472;2023-10-19T23:24:32;99741.66;;;12.93;100.00
58973;BME280;44750;52.040;7.472;2023-10-19T23:29:32;99737.66;;;12.89;100.00
58973;BME280;44750;52.040;7.472;2023-10-19T23:34:32;99703.78;;;12.70;100.00
58973;BME280;44750;52.040;7.472;2023-10-19T23:39:33;99737.31;;;12.77;100.00
58973;BME280;44750;52.040;7.472;2023-10-19T23:44:33;99741.44;;;12.73;100.00
58973;BME280;44750;52.040;7.472;2023-10-19T23:49:33;99765.84;;;12.88;100.00
58973;BME280;44750;52.040;7.472;2023-10-19T23:54:33;99740.66;;;12.79;100.00
58973;BME280;44750;52.040;7.472;2023-10-19T23:59:33;99746.41;;;12.69;100.00
